sensor_id;sensor_type;location;lat;lon;timestamp;pressure;altitude;pressure_sealevel;temperature;humidity
62544;BME280;48597;49.030;1.822;2023-01-27T00:01:38;101635.50;;;20.28;34.72
62544;BME280;48597;49.030;1.822;2023-01-27T00:04:03;101635.44;;;20.32;34.62
62544;BME280;48597;49.030;1.822;2023-01-27T00:06:29;101639.13;;;20.32;34.78
62544;BME280;48597;49.030;1.822;2023-01-27T00:08:55;101636.25;;;20.32;34.62
62544;BME280;48597;49.030;1.822;2023-01-27T00:11:20;101643.22;;;20.31;34.62
62544;BME280;48597;49.030;1.822;2023-01-27T00:14:04;101641.66;;;20.27;34.71
62544;BME280;48597;49.030;1.822;2023-01-27T00:16:29;101632.63;;;20.28;34.67
62544;BME280;48597;49.030;1.822;2023-01-27T00:18:54;101627.72;;;20.29;34.61
62544;BME280;48597;49.030;1.822;2023-01-27T00:21:20;101637.94;;;20.30;34.63
62544;BME280;48597;49.030;1.822;2023-01-27T00:24:04;101632.63;;;20.28;34.69
62544;BME280;48597;49.030;1.822;2023-01-27T00:26:47;101640.03;;;20.26;34.66
62544;BME280;48597;49.030;1.822;2023-01-27T00:29:13;101639.59;;;20.27;34.57
62544;BME280;48597;49.030;1.822;2023-01-27T00:31:38;101620.47;;;20.24;34.65
62544;BME280;48597;49.030;1.822;2023-01-27T00:34:22;101629.91;;;20.21;34.66
62544;BME280;48597;49.030;1.822;2023-01-27T00:36:47;101632.41;;;20.19;34.56
62544;BME280;48597;49.030;1.822;2023-01-27T00:39:13;101632.03;;;20.17;34.65
62544;BME280;48597;49.030;1.822;2023-01-27T00:41:39;101628.78;;;20.15;34.78
62544;BME280;48597;49.030;1.822;2023-01-27T00:44:05;101627.16;;;20.14;34.67
62544;BME280;48597;49.030;1.822;2023-01-27T00:46:31;101624.28;;;20.14;34.61
62544;BME280;48597;49.030;1.822;2023-01-27T00:48:57;101624.28;;;20.14;34.72
62544;BME280;48597;49.030;1.822;2023-01-27T00:51:22;101627.97;;;20.15;34.64
62544;BME280;48597;49.030;1.822;2023-01-27T00:53:48;101619.00;;;20.13;34.63
62544;BME280;48597;49.030;1.822;2023-01-27T00:56:13;101614.53;;;20.12;34.64
62544;BME280;48597;49.030;1.822;2023-01-27T00:58:39;101619.81;;;20.13;34.67
62544;BME280;48597;49.030;1.822;2023-01-27T01:01:07;101628.41;;;20.13;34.62
62544;BME280;48597;49.030;1.822;2023-01-27T01:03:34;101621.09;;;20.12;34.55
62544;BME280;48597;49.030;1.822;2023-01-27T01:06:02;101622.66;;;20.13;34.51
62544;BME280;48597;49.030;1.822;2023-01-27T01:08:29;101621.00;;;20.16;34.54
62544;BME280;48597;49.030;1.822;2023-01-27T05:58:56;101540.56;;;20.10;34.87
62544;BME280;48597;49.030;1.822;2023-01-27T06:01:32;101532.84;;;20.07;34.88
62544;BME280;48597;49.030;1.822;2023-01-27T06:03:58;101544.72;;;20.06;34.99
62544;BME280;48597;49.030;1.822;2023-01-27T06:06:24;101540.69;;;20.03;35.12
62544;BME280;48597;49.030;1.822;2023-01-27T06:08:50;101549.69;;;20.02;35.03
62544;BME280;48597;49.030;1.822;2023-01-27T06:11:15;101540.72;;;19.99;35.11
62544;BME280;48597;49.030;1.822;2023-01-27T06:13:42;101544.06;;;19.98;35.01
62544;BME280;48597;49.030;1.822;2023-01-27T06:16:08;101544.88;;;19.98;35.36
62544;BME280;48597;49.030;1.822;2023-01-27T06:18:34;101540.81;;;19.96;35.25
62544;BME280;48597;49.030;1.822;2023-01-27T06:20:59;101538.38;;;19.94;35.20
62544;BME280;48597;49.030;1.822;2023-01-27T06:23:25;101536.75;;;19.93;35.31
62544;BME280;48597;49.030;1.822;2023-01-27T06:25:51;101546.16;;;19.94;35.45
62544;BME280;48597;49.030;1.822;2023-01-27T06:28:17;101548.63;;;19.92;35.44
62544;BME280;48597;49.030;1.822;2023-01-27T06:30:42;101549.06;;;19.90;35.41
62544;BME280;48597;49.030;1.822;2023-01-27T06:33:08;101552.75;;;19.91;35.53
62544;BME280;48597;49.030;1.822;2023-01-27T06:35:34;101544.59;;;19.89;35.50
62544;BME280;48597;49.030;1.822;2023-01-27T06:38:00;101549.50;;;19.89;35.50
62544;BME280;48597;49.030;1.822;2023-01-27T06:40:26;101545.03;;;19.88;35.57
62544;BME280;48597;49.030;1.822;2023-01-27T06:42:51;101547.88;;;19.88;35.69
62544;BME280;48597;49.030;1.822;2023-01-27T06:45:17;101541.34;;;19.87;35.70
62544;BME280;48597;49.030;1.822;2023-01-27T06:47:42;101549.13;;;19.87;35.66
62544;BME280;48597;49.030;1.822;2023-01-27T06:50:08;101548.31;;;19.86;35.81
62544;BME280;48597;49.030;1.822;2023-01-27T06:52:34;101548.31;;;19.86;35.80
62544;BME280;48597;49.030;1.822;2023-01-27T06:55:00;101540.19;;;19.85;35.90
62544;BME280;48597;49.030;1.822;2023-01-27T06:57:25;101545.09;;;19.84;35.78
62544;BME280;48597;49.030;1.822;2023-01-27T06:59:51;101545.09;;;19.84;35.90
62544;BME280;48597;49.030;1.822;2023-01-27T07:02:16;101555.75;;;19.84;35.81
62544;BME280;48597;49.030;1.822;2023-01-27T07:04:42;101552.88;;;19.84;35.89
62544;BME280;48597;49.030;1.822;2023-01-27T07:07:07;101554.13;;;19.83;35.99
62544;BME280;48597;49.030;1.822;2023-01-27T07:09:33;101554.13;;;19.83;35.92
62544;BME280;48597;49.030;1.822;2023-01-27T07:11:58;101555.34;;;19.82;35.97
62544;BME280;48597;49.030;1.822;2023-01-27T07:14:23;101547.59;;;19.82;35.92
62544;BME280;48597;49.030;1.822;2023-01-27T07:16:48;101559.47;;;19.81;36.07
62544;BME280;48597;49.030;1.822;2023-01-27T07:19:14;101559.03;;;19.82;35.94
62544;BME280;48597;49.030;1.822;2023-01-27T07:21:40;101555.34;;;19.82;36.00
62544;BME280;48597;49.030;1.822;2023-01-27T07:24:05;101563.94;;;19.82;35.98
62544;BME280;48597;49.030;1.822;2023-01-27T07:26:31;101568.03;;;19.81;35.79
62544;BME280;48597;49.030;1.822;2023-01-27T07:28:56;101565.19;;;19.81;35.83
62544;BME280;48597;49.030;1.822;2023-01-27T07:31:21;101568.03;;;19.81;36.01
62544;BME280;48597;49.030;1.822;2023-01-27T07:33:47;101562.31;;;19.81;35.96
62544;BME280;48597;49.030;1.822;2023-01-27T07:36:12;101566.81;;;19.82;36.08
62544;BME280;48597;49.030;1.822;2023-01-27T07:38:37;101563.56;;;19.80;36.16
62544;BME280;48597;49.030;1.822;2023-01-27T07:41:06;101575.00;;;19.80;36.12
62544;BME280;48597;49.030;1.822;2023-01-27T07:43:31;101566.38;;;19.83;36.08
62544;BME280;48597;49.030;1.822;2023-01-27T07:45:57;101573.75;;;19.81;36.00
62544;BME280;48597;49.030;1.822;2023-01-27T07:48:22;101575.81;;;19.80;35.97
62544;BME280;48597;49.030;1.822;2023-01-27T07:50:47;101577.88;;;19.80;36.35
62544;BME280;48597;49.030;1.822;2023-01-27T07:53:13;101583.53;;;19.83;36.40
62544;BME280;48597;49.030;1.822;2023-01-27T07:55:38;101575.75;;;19.84;36.65
62544;BME280;48597;49.030;1.822;2023-01-27T07:58:04;101579.78;;;19.86;36.52
62544;BME280;48597;49.030;1.822;2023-01-27T08:00:31;101582.22;;;19.88;36.42
62544;BME280;48597;49.030;1.822;2023-01-27T08:02:57;101581.34;;;19.91;36.61
62544;BME280;48597;49.030;1.822;2023-01-27T08:05:23;101586.22;;;19.94;36.58
62544;BME280;48597;49.030;1.822;2023-01-27T08:07:48;101589.03;;;19.97;36.65
62544;BME280;48597;49.030;1.822;2023-01-27T08:10:14;101590.28;;;19.96;36.50
62544;BME280;48597;49.030;1.822;2023-01-27T08:12:40;101593.06;;;20.00;36.46
62544;BME280;48597;49.030;1.822;2023-01-27T08:15:07;101591.00;;;20.01;36.39
62544;BME280;48597;49.030;1.822;2023-01-27T08:17:32;101601.63;;;20.00;36.27
62544;BME280;48597;49.030;1.822;2023-01-27T08:19:57;101602.53;;;19.97;35.92
62544;BME280;48597;49.030;1.822;2023-01-27T08:22:23;101600.47;;;19.97;35.93
62544;BME280;48597;49.030;1.822;2023-01-27T08:24:48;101603.25;;;20.01;35.96
62544;BME280;48597;49.030;1.822;2023-01-27T08:27:14;101606.53;;;19.99;36.02
62544;BME280;48597;49.030;1.822;2023-01-27T08:29:39;101607.34;;;20.00;35.96
62544;BME280;48597;49.030;1.822;2023-01-27T08:32:05;101600.38;;;20.01;36.01
62544;BME280;48597;49.030;1.822;2023-01-27T08:34:30;101597.53;;;20.01;35.95
62544;BME280;48597;49.030;1.822;2023-01-27T08:36:55;101597.53;;;20.01;35.83
62544;BME280;48597;49.030;1.822;2023-01-27T08:39:21;101603.19;;;20.05;35.72
62544;BME280;48597;49.030;1.822;2023-01-27T08:41:46;101610.97;;;20.04;35.71
62544;BME280;48597;49.030;1.822;2023-01-27T08:44:12;101608.13;;;20.04;35.79
62544;BME280;48597;49.030;1.822;2023-01-27T08:46:37;101617.09;;;20.06;35.74
62544;BME280;48597;49.030;1.822;2023-01-27T08:49:02;101608.50;;;20.06;35.66
62544;BME280;48597;49.030;1.822;2023-01-27T08:51:27;101624.44;;;20.07;35.63
62544;BME280;48597;49.030;1.822;2023-01-27T08:53:53;101623.19;;;20.08;35.61
62544;BME280;48597;49.030;1.822;2023-01-27T08:56:18;101621.94;;;20.09;35.69
62544;BME280;48597;49.030;1.822;2023-01-27T08:58:43;101625.19;;;20.11;35.62
62544;BME280;48597;49.030;1.822;2023-01-27T09:01:11;101624.38;;;20.11;35.64
62544;BME280;48597;49.030;1.822;2023-01-27T09:03:37;101626.00;;;20.12;35.62
62544;BME280;48597;49.030;1.822;2023-01-27T09:06:04;101623.94;;;20.12;35.53
62544;BME280;48597;49.030;1.822;2023-01-27T09:08:29;101630.44;;;20.13;35.54
62544;BME280;48597;49.030;1.822;2023-01-27T09:10:56;101623.47;;;20.14;35.50
62544;BME280;48597;49.030;1.822;2023-01-27T09:13:21;101619.81;;;20.13;35.54
62544;BME280;48597;49.030;1.822;2023-01-27T09:15:47;101624.28;;;20.14;35.52
62544;BME280;48597;49.030;1.822;2023-01-27T09:18:12;101626.72;;;20.16;35.56
62544;BME280;48597;49.030;1.822;2023-01-27T09:20:37;101625.09;;;20.15;35.61
62544;BME280;48597;49.030;1.822;2023-01-27T09:23:03;101623.06;;;20.15;35.46
62544;BME280;48597;49.030;1.822;2023-01-27T09:25:29;101627.97;;;20.15;35.53
62544;BME280;48597;49.030;1.822;2023-01-27T09:27:55;101625.53;;;20.13;35.67
62544;BME280;48597;49.030;1.822;2023-01-27T09:30:20;101619.00;;;20.13;35.44
62544;BME280;48597;49.030;1.822;2023-01-27T09:32:46;101615.34;;;20.12;35.49
62544;BME280;48597;49.030;1.822;2023-01-27T09:35:11;101630.44;;;20.13;35.50
62544;BME280;48597;49.030;1.822;2023-01-27T09:37:38;101628.84;;;20.12;35.48
62544;BME280;48597;49.030;1.822;2023-01-27T09:40:15;101641.13;;;20.12;35.65
62544;BME280;48597;49.030;1.822;2023-01-27T09:42:48;101633.78;;;20.11;35.51
62544;BME280;48597;49.030;1.822;2023-01-27T09:55:43;101631.38;;;20.06;35.51
62544;BME280;48597;49.030;1.822;2023-01-27T10:01:05;101640.41;;;20.05;35.53
62544;BME280;48597;49.030;1.822;2023-01-27T10:06:13;101622.84;;;20.03;35.46
62544;BME280;48597;49.030;1.822;2023-01-27T10:13:53;101632.75;;;19.98;35.63
62544;BME280;48597;49.030;1.822;2023-01-27T10:21:47;101642.22;;;19.95;35.64
62544;BME280;48597;49.030;1.822;2023-01-27T10:24:27;101646.31;;;19.94;35.51
62544;BME280;48597;49.030;1.822;2023-01-27T10:27:02;101654.06;;;19.93;35.59
62544;BME280;48597;49.030;1.822;2023-01-27T10:29:37;101653.28;;;19.93;35.61
62544;BME280;48597;49.030;1.822;2023-01-27T10:34:36;101653.69;;;19.91;35.67
62544;BME280;48597;49.030;1.822;2023-01-27T10:37:21;101651.25;;;19.90;35.56
62544;BME280;48597;49.030;1.822;2023-01-27T10:40:35;101647.59;;;19.89;35.64
62544;BME280;48597;49.030;1.822;2023-01-27T10:50:24;101640.25;;;19.88;35.80
62544;BME280;48597;49.030;1.822;2023-01-27T10:52:59;101632.47;;;19.89;35.67
62544;BME280;48597;49.030;1.822;2023-01-27T10:55:28;101632.47;;;19.89;35.75
62544;BME280;48597;49.030;1.822;2023-01-27T10:58:03;101631.66;;;19.88;35.76
62544;BME280;48597;49.030;1.822;2023-01-27T11:00:32;101632.47;;;19.89;35.83
62544;BME280;48597;49.030;1.822;2023-01-27T11:03:06;101639.81;;;19.90;35.84
62544;BME280;48597;49.030;1.822;2023-01-27T11:05:38;101647.59;;;19.89;35.72
62544;BME280;48597;49.030;1.822;2023-01-27T11:08:06;101641.06;;;19.89;35.67
62544;BME280;48597;49.030;1.822;2023-01-27T11:10:35;101646.34;;;19.90;35.62
62544;BME280;48597;49.030;1.822;2023-01-27T11:13:02;101636.97;;;19.90;35.81
62544;BME280;48597;49.030;1.822;2023-01-27T11:15:30;101636.97;;;19.90;35.80
62544;BME280;48597;49.030;1.822;2023-01-27T11:25:33;101652.06;;;19.90;35.80
62544;BME280;48597;49.030;1.822;2023-01-27T11:28:04;101649.66;;;19.89;35.83
62544;BME280;48597;49.030;1.822;2023-01-27T11:30:45;101649.66;;;19.89;35.88
62544;BME280;48597;49.030;1.822;2023-01-27T11:33:32;101643.91;;;19.89;35.67
62544;BME280;48597;49.030;1.822;2023-01-27T11:36:01;101635.34;;;19.89;35.83
62544;BME280;48597;49.030;1.822;2023-01-27T11:38:26;101644.34;;;19.87;35.77
62544;BME280;48597;49.030;1.822;2023-01-27T11:40:51;101637.38;;;19.88;35.83
62544;BME280;48597;49.030;1.822;2023-01-27T11:43:22;101650.88;;;19.88;35.76
62544;BME280;48597;49.030;1.822;2023-01-27T11:45:48;101648.03;;;19.88;35.86
62544;BME280;48597;49.030;1.822;2023-01-27T11:48:15;101650.06;;;19.87;35.79
62544;BME280;48597;49.030;1.822;2023-01-27T11:50:41;101653.75;;;19.88;35.81
62544;BME280;48597;49.030;1.822;2023-01-27T11:53:27;101643.09;;;19.88;35.67
62544;BME280;48597;49.030;1.822;2023-01-27T11:56:01;101651.69;;;19.88;35.79
62544;BME280;48597;49.030;1.822;2023-01-27T11:58:43;101656.19;;;19.89;35.62
62544;BME280;48597;49.030;1.822;2023-01-27T12:01:14;101649.25;;;19.87;35.77
62544;BME280;48597;49.030;1.822;2023-01-27T12:06:14;101658.22;;;19.89;35.62
62544;BME280;48597;49.030;1.822;2023-01-27T12:08:49;101656.19;;;19.89;35.73
62544;BME280;48597;49.030;1.822;2023-01-27T12:11:15;101643.91;;;19.89;35.62
62544;BME280;48597;49.030;1.822;2023-01-27T12:13:46;101646.41;;;19.87;35.58
62544;BME280;48597;49.030;1.822;2023-01-27T12:16:12;101641.13;;;19.85;35.63
62544;BME280;48597;49.030;1.822;2023-01-27T12:18:44;101639.09;;;19.86;35.64
62544;BME280;48597;49.030;1.822;2023-01-27T12:21:12;101633.38;;;19.86;35.48
62544;BME280;48597;49.030;1.822;2023-01-27T12:26:11;101632.56;;;19.85;35.65
62544;BME280;48597;49.030;1.822;2023-01-27T12:28:39;101631.75;;;19.85;35.74
62544;BME280;48597;49.030;1.822;2023-01-27T12:31:07;101637.47;;;19.85;35.59
62544;BME280;48597;49.030;1.822;2023-01-27T12:33:33;101624.41;;;19.84;35.64
62544;BME280;48597;49.030;1.822;2023-01-27T12:36:00;101624.41;;;19.84;35.64
62544;BME280;48597;49.030;1.822;2023-01-27T12:38:31;101625.63;;;19.83;35.56
62544;BME280;48597;49.030;1.822;2023-01-27T12:41:00;101623.59;;;19.83;35.62
62544;BME280;48597;49.030;1.822;2023-01-27T12:43:27;101619.09;;;19.82;35.57
62544;BME280;48597;49.030;1.822;2023-01-27T12:48:30;101623.59;;;19.83;35.59
62544;BME280;48597;49.030;1.822;2023-01-27T12:51:03;101621.97;;;19.82;35.63
62544;BME280;48597;49.030;1.822;2023-01-27T12:53:29;101619.09;;;19.82;35.54
62544;BME280;48597;49.030;1.822;2023-01-27T12:58:56;101624.03;;;19.82;35.65
62544;BME280;48597;49.030;1.822;2023-01-27T13:01:26;101621.16;;;19.82;35.58
62544;BME280;48597;49.030;1.822;2023-01-27T13:03:56;101615.44;;;19.82;35.65
62544;BME280;48597;49.030;1.822;2023-01-27T13:11:47;101615.44;;;19.82;35.81
62544;BME280;48597;49.030;1.822;2023-01-27T13:14:14;101612.56;;;19.82;35.68
62544;BME280;48597;49.030;1.822;2023-01-27T13:16:40;101614.63;;;19.81;35.77
62544;BME280;48597;49.030;1.822;2023-01-27T13:19:08;101610.53;;;19.82;35.72
62544;BME280;48597;49.030;1.822;2023-01-27T13:21:40;101604.00;;;19.82;35.89
62544;BME280;48597;49.030;1.822;2023-01-27T13:24:10;101605.63;;;19.83;35.95
62544;BME280;48597;49.030;1.822;2023-01-27T13:26:36;101602.75;;;19.83;35.91
62544;BME280;48597;49.030;1.822;2023-01-27T13:29:13;101606.84;;;19.82;35.94
62544;BME280;48597;49.030;1.822;2023-01-27T13:31:50;101607.25;;;19.84;36.09
62544;BME280;48597;49.030;1.822;2023-01-27T13:44:50;101603.94;;;19.85;36.13
62544;BME280;48597;49.030;1.822;2023-01-27T13:47:33;101609.66;;;19.85;36.04
62544;BME280;48597;49.030;1.822;2023-01-27T13:52:50;101611.72;;;19.85;36.11
62544;BME280;48597;49.030;1.822;2023-01-27T13:55:15;101605.53;;;19.86;36.13
62544;BME280;48597;49.030;1.822;2023-01-27T14:00:20;101620.66;;;19.87;35.98
62544;BME280;48597;49.030;1.822;2023-01-27T14:03:12;101611.25;;;19.86;36.04
62544;BME280;48597;49.030;1.822;2023-01-27T14:11:17;101612.53;;;19.85;35.99
62544;BME280;48597;49.030;1.822;2023-01-27T14:13:51;101615.38;;;19.85;36.03
62544;BME280;48597;49.030;1.822;2023-01-27T14:18:49;101615.38;;;19.85;36.07
62544;BME280;48597;49.030;1.822;2023-01-27T14:23:45;101626.03;;;19.85;35.96
62544;BME280;48597;49.030;1.822;2023-01-27T14:26:20;101629.22;;;19.87;36.12
62544;BME280;48597;49.030;1.822;2023-01-27T14:28:53;101621.13;;;19.85;35.98
62544;BME280;48597;49.030;1.822;2023-01-27T14:32:08;101621.91;;;19.86;36.06
62544;BME280;48597;49.030;1.822;2023-01-27T14:34:29;101628.41;;;19.86;35.96
62544;BME280;48597;49.030;1.822;2023-01-27T14:39:33;101634.59;;;19.85;35.98
62544;BME280;48597;49.030;1.822;2023-01-27T14:42:17;101637.00;;;19.86;36.06
62544;BME280;48597;49.030;1.822;2023-01-27T14:44:53;101644.81;;;19.86;35.98
62544;BME280;48597;49.030;1.822;2023-01-27T14:52:43;101648.91;;;19.85;36.03
62544;BME280;48597;49.030;1.822;2023-01-27T14:58:01;101666.06;;;19.85;36.07
62544;BME280;48597;49.030;1.822;2023-01-27T15:05:43;101668.13;;;19.84;36.03
62544;BME280;48597;49.030;1.822;2023-01-27T15:08:16;101667.31;;;19.84;35.88
62544;BME280;48597;49.030;1.822;2023-01-27T15:10:51;101675.91;;;19.84;35.98
62544;BME280;48597;49.030;1.822;2023-01-27T15:13:26;101673.84;;;19.84;36.14
62544;BME280;48597;49.030;1.822;2023-01-27T15:21:15;101675.09;;;19.83;36.02
62544;BME280;48597;49.030;1.822;2023-01-27T15:26:09;101688.56;;;19.83;35.93
62544;BME280;48597;49.030;1.822;2023-01-27T15:28:38;101695.94;;;19.84;36.06
62544;BME280;48597;49.030;1.822;2023-01-27T15:36:15;101704.50;;;19.84;36.00
62544;BME280;48597;49.030;1.822;2023-01-27T15:38:41;101718.00;;;19.83;36.07
62544;BME280;48597;49.030;1.822;2023-01-27T15:41:09;101717.19;;;19.83;35.96
62544;BME280;48597;49.030;1.822;2023-01-27T15:43:39;101703.69;;;19.83;36.00
62544;BME280;48597;49.030;1.822;2023-01-27T15:46:23;101710.66;;;19.82;35.93
62544;BME280;48597;49.030;1.822;2023-01-27T15:48:49;101714.31;;;19.83;35.93
62544;BME280;48597;49.030;1.822;2023-01-27T15:51:18;101710.66;;;19.82;35.88
62544;BME280;48597;49.030;1.822;2023-01-27T15:53:47;101717.19;;;19.83;35.96
62544;BME280;48597;49.030;1.822;2023-01-27T15:56:14;101709.84;;;19.82;36.04
62544;BME280;48597;49.030;1.822;2023-01-27T15:58:41;101714.31;;;19.83;35.90
62544;BME280;48597;49.030;1.822;2023-01-27T16:01:07;101711.47;;;19.83;35.93
62544;BME280;48597;49.030;1.822;2023-01-27T16:03:35;101729.88;;;19.82;35.94
62544;BME280;48597;49.030;1.822;2023-01-27T16:06:03;101722.53;;;19.81;36.01
62544;BME280;48597;49.030;1.822;2023-01-27T16:08:36;101720.06;;;19.83;36.09
62544;BME280;48597;49.030;1.822;2023-01-27T16:13:49;101736.81;;;19.81;36.01
62544;BME280;48597;49.030;1.822;2023-01-27T16:18:58;101738.06;;;19.80;35.99
62544;BME280;48597;49.030;1.822;2023-01-27T16:21:32;101747.88;;;19.79;36.08
62544;BME280;48597;49.030;1.822;2023-01-27T16:24:02;101744.22;;;19.78;36.08
62544;BME280;48597;49.030;1.822;2023-01-27T16:26:41;101739.72;;;19.77;36.08
62544;BME280;48597;49.030;1.822;2023-01-27T16:31:41;101738.91;;;19.77;35.86
62544;BME280;48597;49.030;1.822;2023-01-27T16:34:16;101748.75;;;19.76;36.06
62544;BME280;48597;49.030;1.822;2023-01-27T16:36:47;101760.19;;;19.76;35.95
62544;BME280;48597;49.030;1.822;2023-01-27T16:39:33;101754.88;;;19.74;35.97
62544;BME280;48597;49.030;1.822;2023-01-27T16:41:59;101760.59;;;19.74;35.87
62544;BME280;48597;49.030;1.822;2023-01-27T16:44:36;101759.78;;;19.74;36.03
62544;BME280;48597;49.030;1.822;2023-01-27T16:47:03;101763.09;;;19.72;36.12
62544;BME280;48597;49.030;1.822;2023-01-27T16:49:36;101771.69;;;19.72;35.97
62544;BME280;48597;49.030;1.822;2023-01-27T16:52:04;101768.84;;;19.72;35.97
62544;BME280;48597;49.030;1.822;2023-01-27T16:56:55;101770.88;;;19.72;35.99
62544;BME280;48597;49.030;1.822;2023-01-27T16:59:22;101768.03;;;19.72;35.97
62544;BME280;48597;49.030;1.822;2023-01-27T17:01:51;101773.75;;;19.72;35.98
62544;BME280;48597;49.030;1.822;2023-01-27T17:04:19;101770.88;;;19.72;35.90
62544;BME280;48597;49.030;1.822;2023-01-27T17:06:46;101773.75;;;19.72;36.06
62544;BME280;48597;49.030;1.822;2023-01-27T17:09:22;101783.94;;;19.73;36.07
62544;BME280;48597;49.030;1.822;2023-01-27T17:11:48;101785.19;;;19.72;36.06
62544;BME280;48597;49.030;1.822;2023-01-27T17:14:14;101777.41;;;19.72;35.97
62544;BME280;48597;49.030;1.822;2023-01-27T17:16:40;101789.66;;;19.73;36.03
62544;BME280;48597;49.030;1.822;2023-01-27T17:19:07;101789.66;;;19.73;35.78
62544;BME280;48597;49.030;1.822;2023-01-27T17:21:37;101786.81;;;19.73;36.03
62544;BME280;48597;49.030;1.822;2023-01-27T17:24:27;101797.78;;;19.74;36.10
62544;BME280;48597;49.030;1.822;2023-01-27T17:29:32;101803.91;;;19.76;36.05
62544;BME280;48597;49.030;1.822;2023-01-27T17:31:59;101796.56;;;19.75;36.09
62544;BME280;48597;49.030;1.822;2023-01-27T17:34:24;101812.47;;;19.76;36.02
62544;BME280;48597;49.030;1.822;2023-01-27T17:37:06;101809.19;;;19.78;35.95
62544;BME280;48597;49.030;1.822;2023-01-27T17:39:31;101814.91;;;19.78;36.04
62544;BME280;48597;49.030;1.822;2023-01-27T17:41:57;101810.81;;;19.79;36.10
62544;BME280;48597;49.030;1.822;2023-01-27T17:44:25;101825.13;;;19.79;36.00
62544;BME280;48597;49.030;1.822;2023-01-27T17:46:50;101823.06;;;19.79;36.06
62544;BME280;48597;49.030;1.822;2023-01-27T17:49:16;101818.16;;;19.80;36.03
62544;BME280;48597;49.030;1.822;2023-01-27T17:51:48;101818.16;;;19.80;36.08
62544;BME280;48597;49.030;1.822;2023-01-27T17:54:25;101829.19;;;19.81;36.06
62544;BME280;48597;49.030;1.822;2023-01-27T17:57:34;101829.19;;;19.81;36.09
62544;BME280;48597;49.030;1.822;2023-01-27T17:59:42;101831.63;;;19.83;36.08
62544;BME280;48597;49.030;1.822;2023-01-27T18:02:43;101834.88;;;19.85;36.11
62544;BME280;48597;49.030;1.822;2023-01-27T18:05:03;101834.88;;;19.85;36.19
62544;BME280;48597;49.030;1.822;2023-01-27T18:07:29;101839.78;;;19.84;36.20
62544;BME280;48597;49.030;1.822;2023-01-27T18:09:55;101838.97;;;19.84;36.14
62544;BME280;48597;49.030;1.822;2023-01-27T18:12:24;101844.31;;;19.82;36.15
62544;BME280;48597;49.030;1.822;2023-01-27T18:14:52;101842.69;;;19.81;36.23
62544;BME280;48597;49.030;1.822;2023-01-27T18:17:21;101845.53;;;19.81;36.14
62544;BME280;48597;49.030;1.822;2023-01-27T18:19:51;101847.59;;;19.80;36.27
62544;BME280;48597;49.030;1.822;2023-01-27T18:22:17;101845.97;;;19.79;36.14
62544;BME280;48597;49.030;1.822;2023-01-27T18:27:24;101842.28;;;19.79;36.10
62544;BME280;48597;49.030;1.822;2023-01-27T18:29:54;101844.34;;;19.78;36.10
62544;BME280;48597;49.030;1.822;2023-01-27T18:32:21;101850.06;;;19.78;36.13
62544;BME280;48597;49.030;1.822;2023-01-27T18:34:51;101843.53;;;19.78;36.12
62544;BME280;48597;49.030;1.822;2023-01-27T18:37:33;101854.97;;;19.78;36.11
62544;BME280;48597;49.030;1.822;2023-01-27T18:40:01;101856.59;;;19.79;36.17
62544;BME280;48597;49.030;1.822;2023-01-27T18:42:27;101852.94;;;19.78;36.09
62544;BME280;48597;49.030;1.822;2023-01-27T18:44:53;101852.13;;;19.78;36.18
62544;BME280;48597;49.030;1.822;2023-01-27T18:49:47;101852.94;;;19.78;36.21
62544;BME280;48597;49.030;1.822;2023-01-27T18:52:13;101848.44;;;19.77;36.12
62544;BME280;48597;49.030;1.822;2023-01-27T18:54:42;101850.06;;;19.78;36.33
62544;BME280;48597;49.030;1.822;2023-01-27T18:57:07;101843.53;;;19.78;36.43
62544;BME280;48597;49.030;1.822;2023-01-27T18:59:33;101845.97;;;19.79;36.44
62544;BME280;48597;49.030;1.822;2023-01-27T19:01:58;101845.16;;;19.79;36.26
62544;BME280;48597;49.030;1.822;2023-01-27T19:04:24;101843.53;;;19.78;36.46
62544;BME280;48597;49.030;1.822;2023-01-27T19:06:49;101844.34;;;19.78;36.63
62544;BME280;48597;49.030;1.822;2023-01-27T19:09:15;101842.28;;;19.79;36.31
62544;BME280;48597;49.030;1.822;2023-01-27T19:11:40;101843.91;;;19.80;36.37
62544;BME280;48597;49.030;1.822;2023-01-27T19:14:05;101842.28;;;19.79;36.44
62544;BME280;48597;49.030;1.822;2023-01-27T19:16:31;101851.25;;;19.81;36.52
62544;BME280;48597;49.030;1.822;2023-01-27T19:18:57;101843.91;;;19.80;36.62
62544;BME280;48597;49.030;1.822;2023-01-27T19:21:23;101846.78;;;19.80;36.42
62544;BME280;48597;49.030;1.822;2023-01-27T19:23:48;101847.59;;;19.80;36.51
62544;BME280;48597;49.030;1.822;2023-01-27T19:26:17;101841.88;;;19.80;36.61
62544;BME280;48597;49.030;1.822;2023-01-27T19:28:43;101854.13;;;19.81;36.61
62544;BME280;48597;49.030;1.822;2023-01-27T19:31:11;101847.59;;;19.80;36.58
62544;BME280;48597;49.030;1.822;2023-01-27T19:33:36;101854.94;;;19.81;36.58
62544;BME280;48597;49.030;1.822;2023-01-27T19:38:51;101854.13;;;19.81;36.65
62544;BME280;48597;49.030;1.822;2023-01-27T19:41:16;101854.53;;;19.79;36.56
62544;BME280;48597;49.030;1.822;2023-01-27T19:43:42;101857.00;;;19.81;36.47
62544;BME280;48597;49.030;1.822;2023-01-27T19:46:14;101857.00;;;19.81;36.77
62544;BME280;48597;49.030;1.822;2023-01-27T19:48:40;101857.41;;;19.79;36.73
62544;BME280;48597;49.030;1.822;2023-01-27T19:51:07;101860.69;;;19.78;36.69
62544;BME280;48597;49.030;1.822;2023-01-27T19:53:33;101862.31;;;19.79;36.67
62544;BME280;48597;49.030;1.822;2023-01-27T19:55:58;101868.03;;;19.79;36.65
62544;BME280;48597;49.030;1.822;2023-01-27T19:58:24;101868.03;;;19.79;36.73
62544;BME280;48597;49.030;1.822;2023-01-27T20:00:50;101869.66;;;19.80;36.52
62544;BME280;48597;49.030;1.822;2023-01-27T20:03:16;101868.84;;;19.79;36.61